Time;durP1;ratioP1;P1;durP2;ratioP2;P2;SDS_P1;SDS_P2;PMS_P1;PMS_P2;Temp;Humidity;BMP_temperature;BMP_pressure;BME280_temperature;BME280_humidity;BME280_pressure;Samples;Min_cycle;Max_cycle;Signal;HPM_P1;HPM_P2
2023/04/14 00:01:02;;;;;;;13.52;3.67;;;;;;;-139.84;100.00;61778.28;5042526;28;20028;-68
2023/04/14 00:03:28;;;;;;;17.88;3.72;;;;;;;-139.84;100.00;61778.28;5033860;28;20044;-67
2023/04/14 00:05:53;;;;;;;15.82;3.63;;;;;;;-139.84;100.00;61778.28;5046524;28;20025;-68
2023/04/14 00:08:19;;;;;;;14.63;3.50;;;;;;;-139.84;100.00;61778.28;5031085;28;20032;-68
2023/04/14 00:10:44;;;;;;;16.45;3.25;;;;;;;-139.84;100.00;61778.28;5045239;28;20044;-69
2023/04/14 00:13:11;;;;;;;14.13;3.10;;;;;;;-139.84;100.00;61778.28;5046445;28;20385;-68
2023/04/14 00:15:38;;;;;;;17.08;3.85;;;;;;;-139.84;100.00;61778.28;5031848;28;20040;-68
2023/04/14 00:18:03;;;;;;;21.02;3.72;;;;;;;-139.84;100.00;61778.28;5034787;28;20033;-68
2023/04/14 00:20:29;;;;;;;9.80;3.58;;;;;;;-139.84;100.00;61778.28;5031891;28;20178;-67
2023/04/14 00:22:54;;;;;;;10.85;3.63;;;;;;;-139.84;100.00;61778.28;5048737;28;20033;-68
2023/04/14 00:25:20;;;;;;;15.65;3.10;;;;;;;-139.84;100.00;61778.28;5026496;28;20040;-68
2023/04/14 00:27:45;;;;;;;12.77;3.42;;;;;;;-139.84;100.00;61778.28;5044846;28;20052;-67
2023/04/14 00:30:11;;;;;;;11.63;3.67;;;;;;;-139.84;100.00;61778.28;5047004;28;20036;-68
2023/04/14 00:32:36;;;;;;;17.30;4.30;;;;;;;-139.84;100.00;61778.28;5033271;28;20374;-67
2023/04/14 00:35:02;;;;;;;13.20;3.70;;;;;;;-139.84;100.00;61778.28;5044123;28;20079;-68
2023/04/14 00:37:29;;;;;;;15.23;3.42;;;;;;;-139.84;100.00;61778.28;5042786;28;20111;-68
2023/04/14 00:39:54;;;;;;;16.83;3.90;;;;;;;-139.84;100.00;61778.28;5031640;28;20416;-68
2023/04/14 00:42:20;;;;;;;18.63;4.32;;;;;;;-139.84;100.00;61778.28;5031348;28;20037;-68
2023/04/14 00:44:47;;;;;;;11.23;3.08;;;;;;;-139.84;100.00;61778.28;5046751;28;20029;-68
2023/04/14 00:47:12;;;;;;;15.63;4.20;;;;;;;-139.84;100.00;61778.28;5045101;28;20476;-67
2023/04/14 00:49:38;;;;;;;17.25;5.40;;;;;;;-139.84;100.00;61778.28;5043188;28;20036;-68
2023/04/14 00:52:04;;;;;;;12.95;3.65;;;;;;;-139.84;100.00;61778.28;5047805;28;20052;-68
2023/04/14 00:54:31;;;;;;;13.52;4.32;;;;;;;-139.84;100.00;61778.28;5045789;28;20040;-68
2023/04/14 00:56:57;;;;;;;14.48;4.20;;;;;;;-139.84;100.00;61778.28;5044538;28;20032;-68
2023/04/14 00:59:24;;;;;;;9.43;3.92;;;;;;;-139.84;100.00;61778.28;5045051;28;20033;-68
2023/04/14 01:01:49;;;;;;;14.23;3.63;;;;;;;-139.84;100.00;61778.28;5048083;28;20567;-68
2023/04/14 01:04:15;;;;;;;11.73;4.18;;;;;;;-139.84;100.00;61778.28;5046229;28;20023;-68
2023/04/14 01:06:41;;;;;;;14.52;4.68;;;;;;;-139.84;100.00;61778.28;5025990;28;20029;-68
2023/04/14 01:09:08;;;;;;;16.10;3.97;;;;;;;-139.84;100.00;61778.28;5025837;28;20432;-68
2023/04/14 01:11:44;;;;;;;;;;;;;;;-139.84;100.00;61778.28;5046157;28;20029;-68
2023/04/14 01:14:26;;;;;;;17.08;4.10;;;;;;;-139.84;100.00;61778.28;5046679;28;19925;-68
2023/04/14 01:16:58;;;;;;;16.73;3.83;;;;;;;-139.84;100.00;61778.28;5028665;28;20366;-68
2023/04/14 01:19:23;;;;;;;12.23;4.00;;;;;;;-139.84;100.00;61778.28;5045364;28;20028;-68
2023/04/14 01:21:53;;;;;;;11.45;4.95;;;;;;;-139.84;100.00;61778.28;5033726;28;20041;-68
2023/04/14 01:24:52;;;;;;;20.63;4.60;;;;;;;-139.84;100.00;61778.28;5043595;28;20500;-67
2023/04/14 01:27:35;;;;;;;17.52;4.70;;;;;;;-139.84;100.00;61778.28;5043509;28;20037;-68
2023/04/14 01:30:31;;;;;;;20.67;5.43;;;;;;;-139.84;100.00;61778.28;5041033;28;20055;-68
2023/04/14 01:33:04;;;;;;;13.82;4.53;;;;;;;-139.84;100.00;61778.28;5023072;28;20033;-68
2023/04/14 01:35:37;;;;;;;22.80;3.97;;;;;;;-139.84;100.00;61778.28;5045372;28;20674;-68
2023/04/14 01:38:07;;;;;;;24.00;5.25;;;;;;;-139.84;100.00;61778.28;5040305;28;20088;-67
2023/04/14 01:40:34;;;;;;;17.58;4.68;;;;;;;-139.84;100.00;61778.28;5045757;28;20033;-67
2023/04/14 01:43:02;;;;;;;24.90;5.30;;;;;;;-139.84;100.00;61778.28;5043063;28;20047;-67
2023/04/14 01:45:35;;;;;;;32.03;5.70;;;;;;;-139.84;100.00;61778.28;5045567;28;20047;-68
2023/04/14 01:48:00;;;;;;;21.65;5.50;;;;;;;-139.84;100.00;61778.28;5046688;28;20025;-68
2023/04/14 01:50:27;;;;;;;17.65;4.80;;;;;;;-139.84;100.00;61778.28;5029914;28;20425;-68
2023/04/14 01:52:53;;;;;;;20.55;5.55;;;;;;;-139.84;100.00;61778.28;5043960;28;20429;-67
2023/04/14 01:55:22;;;;;;;19.90;4.93;;;;;;;-139.84;100.00;61778.28;5041827;28;20029;-68
2023/04/14 01:57:51;;;;;;;22.58;5.55;;;;;;;-139.84;100.00;61778.28;5045846;28;20107;-68
2023/04/14 02:00:18;;;;;;;18.23;4.65;;;;;;;-139.84;100.00;61778.28;5044239;28;20365;-68
2023/04/14 02:02:45;;;;;;;21.13;5.45;;;;;;;-139.84;100.00;61778.28;5032374;28;20108;-68
2023/04/14 02:05:12;;;;;;;19.63;4.97;;;;;;;-139.84;100.00;61778.28;5044744;28;20021;-68
2023/04/14 02:07:39;;;;;;;19.98;5.10;;;;;;;-139.84;100.00;61778.28;5027196;28;20037;-68
2023/04/14 02:10:07;;;;;;;;;;;;;;;-139.84;100.00;61778.28;5042445;28;20120;-68
2023/04/14 02:12:35;;;;;;;17.08;5.07;;;;;;;-139.84;100.00;61778.28;5041086;28;19912;-68
2023/04/14 02:15:01;;;;;;;19.35;6.20;;;;;;;-139.84;100.00;61778.28;5045336;28;20041;-68
2023/04/14 02:17:27;;;;;;;18.13;5.07;;;;;;;-139.84;100.00;61778.28;5042483;28;20033;-68
2023/04/14 02:19:54;;;;;;;15.80;4.40;;;;;;;-139.84;100.00;61778.28;5041969;28;20037;-67
2023/04/14 02:22:20;;;;;;;18.00;4.93;;;;;;;-139.84;100.00;61778.28;5044468;28;20071;-68
2023/04/14 02:24:46;;;;;;;19.15;6.53;;;;;;;-139.84;100.00;61778.28;5044204;28;20025;-69
2023/04/14 02:27:28;;;;;;;15.00;5.63;;;;;;;-139.84;100.00;61778.28;5021517;28;20477;-67
2023/04/14 02:29:55;;;;;;;16.92;5.82;;;;;;;-139.84;100.00;61778.28;5043428;28;20527;-68
2023/04/14 02:32:23;;;;;;;13.98;5.70;;;;;;;-139.84;100.00;61778.28;5042241;28;20446;-67
2023/04/14 02:35:03;;;;;;;16.95;5.55;;;;;;;-139.84;100.00;61778.28;5032304;28;20036;-68
2023/04/14 02:37:49;;;;;;;29.02;7.05;;;;;;;-139.84;100.00;61778.28;5039868;28;20030;-68
2023/04/14 02:40:19;;;;;;;24.80;7.40;;;;;;;-139.84;100.00;61778.28;5035145;28;20036;-68
2023/04/14 02:42:49;;;;;;;22.83;7.30;;;;;;;-139.84;100.00;61778.28;5043755;28;20029;-68
2023/04/14 02:45:21;;;;;;;27.23;7.43;;;;;;;-139.84;100.00;61778.28;5043393;28;20162;-68
2023/04/14 02:47:52;;;;;;;23.30;6.60;;;;;;;-139.84;100.00;61778.28;5042581;28;20481;-67
2023/04/14 02:50:19;;;;;;;25.70;7.35;;;;;;;-139.84;100.00;61778.28;5041439;28;20021;-68
2023/04/14 02:52:50;;;;;;;28.70;8.98;;;;;;;-139.84;100.00;61778.28;5045046;28;20041;-67
2023/04/14 02:55:17;;;;;;;31.83;8.52;;;;;;;-139.84;100.00;61778.28;5040336;28;20164;-67
2023/04/14 02:57:43;;;;;;;26.75;6.88;;;;;;;-139.84;100.00;61778.28;5041459;28;20627;-68
2023/04/14 03:00:10;;;;;;;31.08;8.23;;;;;;;-139.84;100.00;61778.28;5044508;28;20032;-68
2023/04/14 03:02:37;;;;;;;29.00;8.30;;;;;;;-139.84;100.00;61778.28;5047584;28;20499;-67
2023/04/14 03:05:04;;;;;;;23.48;7.63;;;;;;;-139.84;100.00;61778.28;5031204;28;20083;-67
2023/04/14 03:07:30;;;;;;;;;;;;;;;-139.84;100.00;61778.28;5039216;28;20029;-67
2023/04/14 03:09:56;;;;;;;20.15;7.35;;;;;;;-139.84;100.00;61778.28;5031980;28;20398;-67
2023/04/14 03:12:24;;;;;;;22.65;6.80;;;;;;;-139.84;100.00;61778.28;5039697;28;20428;-69
2023/04/14 03:14:50;;;;;;;21.95;7.10;;;;;;;-139.84;100.00;61778.28;5045384;28;20099;-68
2023/04/14 03:17:19;;;;;;;21.73;7.20;;;;;;;-139.84;100.00;61778.28;5029657;28;20038;-67
2023/04/14 03:19:48;;;;;;;21.23;6.45;;;;;;;-139.84;100.00;61778.28;5041053;28;20048;-67
2023/04/14 03:22:16;;;;;;;21.17;6.95;;;;;;;-139.84;100.00;61778.28;5041979;28;20401;-67
2023/04/14 03:24:43;;;;;;;29.10;7.78;;;;;;;-139.84;100.00;61778.28;5040542;28;20087;-67
2023/04/14 03:27:13;;;;;;;27.00;7.22;;;;;;;-139.84;100.00;61778.28;5041877;28;20481;-68
2023/04/14 03:29:43;;;;;;;28.27;7.45;;;;;;;-139.84;100.00;61778.28;5040955;28;20093;-68
2023/04/14 03:32:12;;;;;;;22.90;6.88;;;;;;;-139.84;100.00;61778.28;5042680;28;20512;-68
2023/04/14 03:34:41;;;;;;;22.48;7.22;;;;;;;-139.84;100.00;61778.28;5029253;28;20489;-68
2023/04/14 03:37:08;;;;;;;24.52;6.68;;;;;;;-139.84;100.00;61778.28;5026762;28;20035;-68
2023/04/14 03:39:37;;;;;;;;;;;;;;;-139.84;100.00;61778.28;5046217;28;20480;-68
2023/04/14 03:42:04;;;;;;;22.23;6.57;;;;;;;-139.84;100.00;61778.28;5045892;28;20043;-67
2023/04/14 03:44:34;;;;;;;15.73;5.78;;;;;;;-139.84;100.00;61778.28;5047499;28;20032;-68
2023/04/14 03:47:02;;;;;;;17.10;6.18;;;;;;;-139.84;100.00;61778.28;5048971;28;20562;-68
2023/04/14 03:49:28;;;;;;;16.77;6.00;;;;;;;-139.84;100.00;61778.28;5049065;28;20380;-67
2023/04/14 03:51:58;;;;;;;16.15;5.40;;;;;;;-139.84;100.00;61778.28;5045698;28;20120;-68
2023/04/14 03:54:29;;;;;;;19.05;6.38;;;;;;;-139.84;100.00;61778.28;5047182;28;20029;-68
2023/04/14 03:56:57;;;;;;;15.95;5.85;;;;;;;-139.84;100.00;61778.28;5046940;28;20090;-68
2023/04/14 03:59:25;;;;;;;20.23;6.05;;;;;;;-139.84;100.00;61778.28;5046245;28;20508;-67
2023/04/14 04:01:52;;;;;;;19.30;6.10;;;;;;;-139.84;100.00;61778.28;5031988;28;20435;-68
2023/04/14 04:04:19;;;;;;;26.88;5.75;;;;;;;-139.84;100.00;61778.28;5025758;28;20083;-67
2023/04/14 04:06:44;;;;;;;16.35;6.15;;;;;;;-139.84;100.00;61778.28;5045541;28;20542;-68
2023/04/14 04:09:14;;;;;;;12.40;5.55;;;;;;;-139.84;100.00;61778.28;5046345;28;20052;-68
2023/04/14 04:11:44;;;;;;;18.02;7.25;;;;;;;-139.84;100.00;61778.28;5044881;28;20025;-68
2023/04/14 04:14:11;;;;;;;16.70;6.15;;;;;;;-139.84;100.00;61778.28;5031591;28;20029;-68
2023/04/14 04:16:40;;;;;;;15.88;5.57;;;;;;;-139.84;100.00;61778.28;5047759;28;20056;-67
2023/04/14 04:19:06;;;;;;;18.75;6.03;;;;;;;-139.84;100.00;61778.28;5027836;28;20029;-67
2023/04/14 04:21:34;;;;;;;17.27;5.47;;;;;;;-139.84;100.00;61778.28;5046794;28;20066;-67
2023/04/14 04:24:02;;;;;;;17.52;6.50;;;;;;;-139.84;100.00;61778.28;5036304;28;20020;-67
2023/04/14 04:26:27;;;;;;;22.05;5.93;;;;;;;-139.84;100.00;61778.28;5044010;28;20408;-67
2023/04/14 04:28:59;;;;;;;17.48;5.78;;;;;;;-139.84;100.00;61778.28;5044742;28;20059;-68
2023/04/14 04:31:26;;;;;;;23.55;6.93;;;;;;;-139.84;100.00;61778.28;5046889;28;20032;-68
2023/04/14 04:33:52;;;;;;;14.63;5.78;;;;;;;-139.84;100.00;61778.28;5044945;28;20041;-68
2023/04/14 04:36:18;;;;;;;17.65;5.70;;;;;;;-139.84;100.00;61778.28;5042498;28;20035;-68
2023/04/14 04:38:44;;;;;;;16.88;6.60;;;;;;;-139.84;100.00;61778.28;5046066;28;20344;-67
2023/04/14 04:41:29;;;;;;;17.58;5.78;;;;;;;-139.84;100.00;61778.28;5045961;28;20400;-67
2023/04/14 04:43:55;;;;;;;11.77;5.30;;;;;;;-139.84;100.00;61778.28;5046934;28;20473;-67
2023/04/14 04:46:42;;;;;;;20.67;6.43;;;;;;;-139.84;100.00;61778.28;5043730;28;20020;-68
2023/04/14 04:49:08;;;;;;;17.17;6.28;;;;;;;-139.84;100.00;61778.28;5045660;28;20021;-68
2023/04/14 04:51:33;;;;;;;18.42;6.18;;;;;;;-139.84;100.00;61778.28;5045845;28;20108;-67
2023/04/14 04:53:59;;;;;;;11.48;5.55;;;;;;;-139.84;100.00;61778.28;5047577;28;20049;-68
2023/04/14 04:56:25;;;;;;;15.20;5.38;;;;;;;-139.84;100.00;61778.28;5044184;28;20044;-68
2023/04/14 04:58:50;;;;;;;17.55;7.65;;;;;;;-139.84;100.00;61778.28;5042968;28;20515;-67
2023/04/14 05:01:18;;;;;;;18.48;5.85;;;;;;;-139.84;100.00;61778.28;5044208;28;20043;-68
2023/04/14 05:03:44;;;;;;;19.02;6.60;;;;;;;-139.84;100.00;61778.28;5035605;28;20017;-68
2023/04/14 05:06:10;;;;;;;18.80;6.15;;;;;;;-139.84;100.00;61778.28;5043213;28;20108;-68
2023/04/14 05:08:35;;;;;;;15.70;6.10;;;;;;;-139.84;100.00;61778.28;5024612;28;20131;-67
2023/04/14 05:11:01;;;;;;;14.30;5.97;;;;;;;-139.84;100.00;61778.28;5030885;28;20032;-67
2023/04/14 05:13:26;;;;;;;19.55;5.55;;;;;;;-139.84;100.00;61778.28;5046305;28;20033;-68
2023/04/14 05:16:01;;;;;;;17.75;5.85;;;;;;;-139.84;100.00;61778.28;5042853;28;20087;-67
2023/04/14 05:18:27;;;;;;;18.20;6.22;;;;;;;-139.84;100.00;61778.28;5045371;28;20343;-68
2023/04/14 05:20:52;;;;;;;14.27;6.33;;;;;;;-139.84;100.00;61778.28;5044672;28;20438;-68
2023/04/14 05:23:18;;;;;;;21.30;5.85;;;;;;;-139.84;100.00;61778.28;5045486;28;20025;-68
2023/04/14 05:25:43;;;;;;;14.55;5.70;;;;;;;-139.84;100.00;61778.28;5029903;28;20163;-68
2023/04/14 05:28:08;;;;;;;21.17;5.93;;;;;;;-139.84;100.00;61778.28;5041681;28;20768;-68
2023/04/14 05:30:34;;;;;;;11.65;5.18;;;;;;;-139.84;100.00;61778.28;5043678;28;20033;-67
2023/04/14 05:33:00;;;;;;;15.45;5.80;;;;;;;-139.84;100.00;61778.28;5045961;28;20504;-68
2023/04/14 05:35:25;;;;;;;15.30;6.38;;;;;;;-139.84;100.00;61778.28;5031979;28;20029;-68
2023/04/14 05:37:51;;;;;;;16.48;6.82;;;;;;;-139.84;100.00;61778.28;5027231;28;20041;-67
2023/04/14 05:40:16;;;;;;;14.48;5.72;;;;;;;-139.84;100.00;61778.28;5033245;28;20105;-68
2023/04/14 05:42:42;;;;;;;14.32;5.75;;;;;;;-139.84;100.00;61778.28;5033133;28;20025;-68
2023/04/14 05:45:08;;;;;;;13.65;5.53;;;;;;;-139.84;100.00;61778.28;5043256;28;20025;-67
2023/04/14 05:47:34;;;;;;;16.00;5.93;;;;;;;-139.84;100.00;61778.28;5047958;28;20021;-68
2023/04/14 05:50:02;;;;;;;11.63;5.70;;;;;;;-139.84;100.00;61778.28;5045567;28;20040;-68
2023/04/14 05:52:27;;;;;;;17.77;5.82;;;;;;;-139.84;100.00;61778.28;5026294;28;20077;-67
2023/04/14 05:54:53;;;;;;;21.85;6.03;;;;;;;-139.84;100.00;61778.28;5047045;28;20040;-68
2023/04/14 05:57:18;;;;;;;15.93;5.65;;;;;;;-139.84;100.00;61778.28;5042004;28;20090;-68
2023/04/14 05:59:44;;;;;;;12.32;6.00;;;;;;;-139.84;100.00;61778.28;5029280;28;20067;-68
2023/04/14 06:02:09;;;;;;;19.65;6.82;;;;;;;-139.84;100.00;61778.28;5030669;28;20079;-70
2023/04/14 06:04:34;;;;;;;15.02;6.22;;;;;;;-139.84;100.00;61778.28;5044216;28;20437;-68
2023/04/14 06:07:01;;;;;;;12.77;5.78;;;;;;;-139.84;100.00;61778.28;5041838;28;20060;-67
2023/04/14 06:09:27;;;;;;;14.40;5.15;;;;;;;-139.84;100.00;61778.28;5028401;28;20044;-68
2023/04/14 06:11:52;;;;;;;16.63;4.97;;;;;;;-139.84;100.00;61778.28;5044138;28;20037;-67
2023/04/14 06:14:18;;;;;;;16.40;5.88;;;;;;;-139.84;100.00;61778.28;5044135;28;20047;-67
2023/04/14 06:16:43;;;;;;;13.65;5.75;;;;;;;-139.84;100.00;61778.28;5041298;28;20089;-68
2023/04/14 06:19:09;;;;;;;15.38;5.43;;;;;;;-139.84;100.00;61778.28;5018492;28;20454;-67
2023/04/14 06:21:35;;;;;;;11.60;5.10;;;;;;;-139.84;100.00;61778.28;5045375;28;20036;-67
2023/04/14 06:24:00;;;;;;;18.67;4.93;;;;;;;-139.84;100.00;61778.28;5041666;28;20301;-67
2023/04/14 06:26:25;;;;;;;14.07;4.82;;;;;;;-139.84;100.00;61778.28;5041785;28;20036;-68
2023/04/14 06:28:51;;;;;;;12.85;5.47;;;;;;;-139.84;100.00;61778.28;5042723;28;20044;-67
2023/04/14 06:31:16;;;;;;;13.82;5.32;;;;;;;-139.84;100.00;61778.28;5041977;28;20039;-68
2023/04/14 06:33:41;;;;;;;11.48;4.90;;;;;;;-139.84;100.00;61778.28;5027832;28;20386;-68
2023/04/14 06:36:07;;;;;;;10.35;4.45;;;;;;;-139.84;100.00;61778.28;5040661;28;20101;-69
2023/04/14 06:38:32;;;;;;;11.57;4.40;;;;;;;-139.84;100.00;61778.28;5038981;28;20114;-67
2023/04/14 06:40:58;;;;;;;12.20;5.13;;;;;;;-139.84;100.00;61778.28;5044133;28;20046;-67
2023/04/14 06:43:23;;;;;;;11.38;4.78;;;;;;;-139.84;100.00;61778.28;5041829;28;20017;-67
2023/04/14 06:45:49;;;;;;;13.90;4.53;;;;;;;-139.84;100.00;61778.28;5043232;28;20033;-67
2023/04/14 06:48:15;;;;;;;15.07;5.18;;;;;;;-139.84;100.00;61778.28;5041824;28;20430;-68
2023/04/14 06:50:40;;;;;;;15.52;5.57;;;;;;;-139.84;100.00;61778.28;5044528;28;20544;-68
2023/04/14 06:53:07;;;;;;;13.52;5.25;;;;;;;-139.84;100.00;61778.28;5043752;28;20025;-68
2023/04/14 06:55:34;;;;;;;13.50;5.47;;;;;;;-139.84;100.00;61778.28;5043634;28;20029;-68
2023/04/14 06:57:59;;;;;;;14.38;5.22;;;;;;;-139.84;100.00;61778.28;5041435;28;20033;-68
2023/04/14 07:00:25;;;;;;;15.07;5.20;;;;;;;-139.84;100.00;61778.28;5041138;28;20176;-68
2023/04/14 07:02:50;;;;;;;15.05;5.18;;;;;;;-139.84;100.00;61778.28;5043684;28;20024;-68
2023/04/14 07:05:17;;;;;;;17.35;5.40;;;;;;;-139.84;100.00;61778.28;5027058;28;20017;-68
2023/04/14 07:07:42;;;;;;;15.82;4.97;;;;;;;-139.84;100.00;61778.28;5017882;28;20025;-68
2023/04/14 07:10:08;;;;;;;15.05;5.82;;;;;;;-139.84;100.00;61778.28;5042072;28;20049;-68
2023/04/14 07:12:33;;;;;;;18.20;5.43;;;;;;;-139.84;100.00;61778.28;5039863;28;20027;-68
2023/04/14 07:14:59;;;;;;;19.40;5.18;;;;;;;-139.84;100.00;61778.28;5044643;28;20033;-68
2023/04/14 07:17:24;;;;;;;12.85;4.30;;;;;;;-139.84;100.00;61778.28;5039116;28;20576;-69
2023/04/14 07:19:49;;;;;;;12.95;4.30;;;;;;;-139.84;100.00;61778.28;5041641;28;20028;-68
2023/04/14 07:22:15;;;;;;;13.00;4.07;;;;;;;-139.84;100.00;61778.28;5045954;28;21266;-68
2023/04/14 07:24:41;;;;;;;14.77;4.55;;;;;;;-139.84;100.00;61778.28;5044637;28;20029;-68
2023/04/14 07:27:08;;;;;;;14.20;4.28;;;;;;;-139.84;100.00;61778.28;5044053;28;20035;-68
2023/04/14 07:29:33;;;;;;;11.75;4.28;;;;;;;-139.84;100.00;61778.28;5043387;28;20122;-69
2023/04/14 07:31:59;;;;;;;13.35;4.45;;;;;;;-139.84;100.00;61778.28;5040171;28;20079;-69
2023/04/14 07:34:24;;;;;;;10.23;3.92;;;;;;;-139.84;100.00;61778.28;5047769;28;20527;-69
2023/04/14 07:36:50;;;;;;;11.75;4.03;;;;;;;-139.84;100.00;61778.28;5019002;28;20028;-69
2023/04/14 07:39:15;;;;;;;10.40;4.57;;;;;;;-139.84;100.00;61778.28;5043975;28;20028;-69
2023/04/14 07:41:41;;;;;;;8.30;3.80;;;;;;;-139.84;100.00;61778.28;5042804;28;20016;-69
2023/04/14 07:44:06;;;;;;;13.57;4.30;;;;;;;-139.84;100.00;61778.28;5043502;28;20021;-68
2023/04/14 07:46:32;;;;;;;10.30;4.43;;;;;;;-139.84;100.00;61778.28;5029714;28;20032;-68
2023/04/14 07:48:58;;;;;;;13.93;4.30;;;;;;;-139.84;100.00;61778.28;5046760;28;20457;-68
2023/04/14 07:51:23;;;;;;;9.70;3.95;;;;;;;-139.84;100.00;61778.28;5040966;28;20035;-69
2023/04/14 07:53:51;;;;;;;10.60;4.53;;;;;;;-139.84;100.00;61778.28;5041691;28;20082;-68
2023/04/14 07:56:16;;;;;;;9.57;4.15;;;;;;;-139.84;100.00;61778.28;5040783;28;20071;-69
2023/04/14 07:58:41;;;;;;;13.85;4.03;;;;;;;-139.84;100.00;61778.28;5039653;28;20025;-69
2023/04/14 08:01:07;;;;;;;14.40;4.13;;;;;;;-139.84;100.00;61778.28;5044422;28;20104;-68
2023/04/14 08:03:32;;;;;;;10.67;4.47;;;;;;;-139.84;100.00;61778.28;5042105;28;20035;-68
2023/04/14 08:05:57;;;;;;;13.17;4.43;;;;;;;-139.84;100.00;61778.28;5041076;28;20025;-68
2023/04/14 08:08:23;;;;;;;9.90;3.30;;;;;;;-139.84;100.00;61778.28;5041954;28;20017;-68
2023/04/14 08:10:49;;;;;;;10.17;3.50;;;;;;;-139.84;100.00;61778.28;5045007;28;20053;-69
2023/04/14 08:13:14;;;;;;;14.25;3.80;;;;;;;-139.84;100.00;61778.28;5041442;28;20069;-68
2023/04/14 08:15:40;;;;;;;12.05;3.15;;;;;;;-139.84;100.00;61778.28;5044335;28;20115;-68
2023/04/14 08:18:05;;;;;;;9.77;4.03;;;;;;;-139.84;100.00;61778.28;5042461;28;20036;-68
2023/04/14 08:20:31;;;;;;;14.10;4.05;;;;;;;-139.84;100.00;61778.28;5046048;28;20057;-68
2023/04/14 08:22:56;;;;;;;8.80;2.63;;;;;;;-139.84;100.00;61778.28;5026508;28;20069;-69
2023/04/14 08:25:22;;;;;;;16.93;3.13;;;;;;;-139.84;100.00;61778.28;5028632;28;20057;-68
2023/04/14 08:27:48;;;;;;;10.07;3.13;;;;;;;-139.84;100.00;61778.28;5031526;28;20400;-68
2023/04/14 08:30:13;;;;;;;6.50;2.47;;;;;;;-139.84;100.00;61778.28;5029028;28;20567;-69
2023/04/14 08:32:39;;;;;;;5.10;2.75;;;;;;;-139.84;100.00;61778.28;5047358;28;20048;-68
2023/04/14 08:35:05;;;;;;;11.63;2.97;;;;;;;-139.84;100.00;61778.28;5032990;28;20062;-68
2023/04/14 08:37:30;;;;;;;13.17;2.43;;;;;;;-139.84;100.00;61778.28;5045984;28;20025;-68
2023/04/14 08:39:56;;;;;;;11.68;2.72;;;;;;;-139.84;100.00;61778.28;5045031;28;20040;-68
2023/04/14 08:42:21;;;;;;;6.40;2.40;;;;;;;-139.84;100.00;61778.28;5045832;28;20499;-69
2023/04/14 08:44:47;;;;;;;3.88;2.25;;;;;;;-139.84;100.00;61778.28;5030788;28;20025;-68
2023/04/14 08:47:15;;;;;;;8.48;3.17;;;;;;;-139.84;100.00;61778.28;5045291;28;20487;-69
2023/04/14 08:50:12;;;;;;;11.75;2.90;;;;;;;-139.84;100.00;61778.28;5042760;28;20040;-68
2023/04/14 08:52:40;;;;;;;10.40;2.85;;;;;;;-139.84;100.00;61778.28;5024302;28;20040;-69
2023/04/14 08:55:07;;;;;;;9.45;3.75;;;;;;;-139.84;100.00;61778.28;5034927;28;20041;-68
2023/04/14 08:57:33;;;;;;;13.18;3.70;;;;;;;-139.84;100.00;61778.28;5043197;28;20033;-69
2023/04/14 09:00:03;;;;;;;14.38;3.80;;;;;;;-139.84;100.00;61778.28;5044303;28;20534;-68
2023/04/14 09:02:31;;;;;;;9.73;3.55;;;;;;;-139.84;100.00;61778.28;5044982;28;20106;-69
2023/04/14 09:04:58;;;;;;;10.68;4.18;;;;;;;-139.84;100.00;61778.28;5033868;28;20681;-68
2023/04/14 09:07:24;;;;;;;21.02;4.88;;;;;;;-139.84;100.00;61778.28;5045887;28;22002;-68
2023/04/14 09:09:50;;;;;;;14.50;4.70;;;;;;;-139.84;100.00;61778.28;5047285;28;20048;-68
2023/04/14 09:12:16;;;;;;;8.73;3.53;;;;;;;-139.84;100.00;61778.28;5042376;28;20028;-68
2023/04/14 09:14:43;;;;;;;10.73;3.67;;;;;;;-139.84;100.00;61778.28;5045879;28;20030;-69
2023/04/14 09:17:09;;;;;;;8.40;3.35;;;;;;;-139.84;100.00;61778.28;5042738;28;20504;-68
2023/04/14 09:19:35;;;;;;;12.00;3.53;;;;;;;-139.84;100.00;61778.28;5049107;28;20095;-69
2023/04/14 09:22:00;;;;;;;13.67;3.60;;;;;;;-139.84;100.00;61778.28;5044073;28;20043;-68
2023/04/14 09:24:32;;;;;;;14.17;4.27;;;;;;;-139.84;100.00;61778.28;5047619;28;20132;-68
2023/04/14 09:27:02;;;;;;;10.70;2.90;;;;;;;-139.84;100.00;61778.28;5045210;28;20037;-68
2023/04/14 09:29:28;;;;;;;16.63;2.75;;;;;;;-139.84;100.00;61778.28;5047104;28;20029;-68
2023/04/14 09:31:53;;;;;;;6.57;1.97;;;;;;;-139.84;100.00;61778.28;5044338;28;20024;-68
2023/04/14 09:34:20;;;;;;;7.00;2.30;;;;;;;-139.84;100.00;61778.28;5048647;28;20021;-68
2023/04/14 09:37:03;;;;;;;9.85;2.42;;;;;;;-139.84;100.00;61778.28;5042078;28;20433;-68
2023/04/14 09:39:30;;;;;;;7.80;2.42;;;;;;;-139.84;100.00;61778.28;5041404;28;20119;-68
2023/04/14 09:41:55;;;;;;;4.82;2.42;;;;;;;-139.84;100.00;61778.28;5045145;28;20048;-68
2023/04/14 09:44:21;;;;;;;7.03;2.33;;;;;;;-139.84;100.00;61778.28;5044339;28;20047;-68
2023/04/14 09:46:56;;;;;;;10.32;2.25;;;;;;;-139.84;100.00;61778.28;5045665;28;20040;-67
2023/04/14 09:49:22;;;;;;;7.57;1.90;;;;;;;-139.84;100.00;61778.28;5029523;28;20412;-67
2023/04/14 09:51:48;;;;;;;8.73;2.70;;;;;;;-139.84;100.00;61778.28;5031884;28;20112;-68
2023/04/14 09:54:23;;;;;;;8.33;2.30;;;;;;;-139.84;100.00;61778.28;5045816;28;20431;-68
2023/04/14 09:56:48;;;;;;;5.75;2.03;;;;;;;-139.84;100.00;61778.28;5042830;28;20064;-67
2023/04/14 09:59:14;;;;;;;6.50;2.33;;;;;;;-139.84;100.00;61778.28;5044268;28;20452;-68
2023/04/14 10:01:44;;;;;;;8.70;2.30;;;;;;;-139.84;100.00;61778.28;5041566;28;20032;-68
2023/04/14 10:04:22;;;;;;;9.50;2.53;;;;;;;-139.84;100.00;61778.28;5045437;28;20108;-68
2023/04/14 10:06:48;;;;;;;5.55;1.88;;;;;;;-139.84;100.00;61778.28;5041747;28;20057;-68
2023/04/14 10:09:26;;;;;;;7.27;2.00;;;;;;;-139.84;100.00;61778.28;5043574;28;20069;-68
2023/04/14 10:12:13;;;;;;;7.75;2.85;;;;;;;-139.84;100.00;61778.28;5040610;28;20109;-68
2023/04/14 10:14:42;;;;;;;10.60;2.00;;;;;;;-139.84;100.00;61778.28;5043971;28;20074;-68
2023/04/14 10:17:09;;;;;;;6.07;2.28;;;;;;;-139.84;100.00;61778.28;5034510;28;20040;-69
2023/04/14 10:19:36;;;;;;;11.70;2.35;;;;;;;-139.84;100.00;61778.28;5042811;28;20036;-69
2023/04/14 10:22:03;;;;;;;8.27;1.95;;;;;;;-139.84;100.00;61778.28;5041660;28;20021;-67
2023/04/14 10:24:29;;;;;;;6.68;2.05;;;;;;;-139.84;100.00;61778.28;5030008;28;20041;-67
2023/04/14 10:26:55;;;;;;;5.83;2.13;;;;;;;-139.84;100.00;61778.28;5042878;28;20138;-67
2023/04/14 10:29:21;;;;;;;4.60;1.95;;;;;;;-139.84;100.00;61778.28;5040482;28;20116;-67
2023/04/14 10:31:54;;;;;;;3.83;1.73;;;;;;;-139.84;100.00;61778.28;5030856;28;20107;-67
2023/04/14 10:34:22;;;;;;;5.18;2.00;;;;;;;-139.84;100.00;61778.28;5041329;28;20112;-66
2023/04/14 10:36:48;;;;;;;10.95;2.10;;;;;;;-139.84;100.00;61778.28;5024050;28;20408;-67
2023/04/14 10:39:20;;;;;;;8.20;2.10;;;;;;;-139.84;100.00;61778.28;5039566;28;20033;-68
2023/04/14 10:41:46;;;;;;;8.40;2.72;;;;;;;-139.84;100.00;61778.28;5040765;28;20080;-68
2023/04/14 10:44:30;;;;;;;33.33;3.67;;;;;;;-139.84;100.00;61778.28;5041809;28;20420;-68
2023/04/14 10:46:56;;;;;;;8.32;2.72;;;;;;;-139.84;100.00;61778.28;5039236;28;20170;-68
2023/04/14 10:49:31;;;;;;;6.35;1.88;;;;;;;-139.84;100.00;61778.28;5039010;28;20032;-67
2023/04/14 10:51:58;;;;;;;3.88;1.58;;;;;;;-139.84;100.00;61778.28;5025869;28;20581;-67
2023/04/14 10:54:23;;;;;;;6.35;2.50;;;;;;;-139.84;100.00;61778.28;5041821;28;20262;-67
2023/04/14 10:57:11;;;;;;;7.13;1.83;;;;;;;-139.84;100.00;61778.28;5038131;28;20036;-66
2023/04/14 10:59:44;;;;;;;5.47;1.98;;;;;;;-139.84;100.00;61778.28;5043942;28;20024;-67
2023/04/14 11:02:30;;;;;;;7.82;1.80;;;;;;;-139.84;100.00;61778.28;5040108;28;20041;-66
2023/04/14 11:05:10;;;;;;;8.43;2.50;;;;;;;-139.84;100.00;61778.28;5027796;28;20012;-67
2023/04/14 11:07:47;;;;;;;7.57;2.67;;;;;;;-139.84;100.00;61778.28;5040969;28;20028;-66